createdAt,value
2022-10-24T00:00:35.555Z,100038.66
2022-10-24T00:01:35.971Z,100035.19
2022-10-24T00:02:36.367Z,100036.09
2022-10-24T00:03:36.752Z,100036.15
2022-10-24T00:04:38.527Z,100035.41
2022-10-24T00:05:41.228Z,100033.58
2022-10-24T00:06:39.897Z,100032.33
2022-10-24T00:07:38.980Z,100032.81
2022-10-24T00:08:41.040Z,100037.48
2022-10-24T00:09:39.908Z,100033.23
2022-10-24T00:11:42.951Z,100040.19
2022-10-24T00:12:44.181Z,100042.2
2022-10-24T00:13:43.420Z,100037.77
2022-10-24T00:14:43.608Z,100031.03
2022-10-24T00:15:46.982Z,100031.66
2022-10-24T00:16:44.330Z,100032.68
2022-10-24T00:17:44.888Z,100034.81
2022-10-24T00:18:45.687Z,100033.66
2022-10-24T00:19:45.809Z,100037.59
2022-10-24T00:20:46.035Z,100038.38
2022-10-24T00:21:47.060Z,100039.71
2022-10-24T00:22:46.967Z,100044.12
2022-10-24T00:23:47.380Z,100044.58
2022-10-24T00:24:47.586Z,100046.45
2022-10-24T00:25:48.208Z,100045.28
2022-10-24T00:26:48.318Z,100046.41
2022-10-24T00:27:48.742Z,100043.99
2022-10-24T00:28:49.338Z,100047.09
2022-10-24T00:29:49.565Z,100047.55
2022-10-24T00:30:53.156Z,100043.92
2022-10-24T00:31:50.458Z,100034.83
2022-10-24T00:32:52.147Z,100034.67
2022-10-24T00:33:51.553Z,100030.33
2022-10-24T00:34:51.745Z,100032.02
2022-10-24T00:35:52.325Z,100034.92
2022-10-24T00:36:52.482Z,100033.64
2022-10-24T00:37:53.010Z,100038.78
2022-10-24T00:38:53.823Z,100042.95
2022-10-24T00:39:53.520Z,100040.83
2022-10-24T00:40:54.142Z,100042.11
2022-10-24T00:41:54.561Z,100045.89
2022-10-24T00:42:54.720Z,100050.51
2022-10-24T00:44:59.594Z,100044.52
2022-10-24T00:46:02.364Z,100042.52
2022-10-24T00:49:14.988Z,100047.03
2022-10-24T00:50:15.117Z,100048.3
2022-10-24T00:52:22.064Z,100047.17
2022-10-24T00:53:21.358Z,100043.6
2022-10-24T00:54:20.757Z,100040.98
2022-10-24T00:55:20.460Z,100039.09
2022-10-24T00:56:23.974Z,100038.17
2022-10-24T00:58:26.406Z,100043.08
2022-10-24T00:59:24.488Z,100044.77
2022-10-24T01:00:27.628Z,100045.24
2022-10-24T01:01:25.960Z,100046.25
2022-10-24T01:02:25.619Z,100049.78
2022-10-24T01:03:26.236Z,100052.95
2022-10-24T01:04:26.340Z,100047.35
2022-10-24T01:30:43.310Z,100050.73
2022-10-24T01:41:59.972Z,100055.38
2022-10-24T01:45:05.925Z,100052.28
2022-10-24T01:51:20.505Z,100060.78
2022-10-24T01:52:19.597Z,100059.72
2022-10-24T01:53:22.540Z,100065.02
2022-10-24T01:54:22.983Z,100064.2
2022-10-24T01:55:23.213Z,100063.38
2022-10-24T01:57:29.667Z,100065.53
2022-10-24T01:58:27.219Z,100063.09
2022-10-24T02:00:29.481Z,100066.55
2022-10-24T02:01:30.278Z,100073.81
2022-10-24T02:04:41.089Z,100077.16
2022-10-24T02:05:46.999Z,100075.94
2022-10-24T02:06:43.139Z,100075.84
2022-10-24T02:07:42.736Z,100077.59
2022-10-24T02:08:46.719Z,100079.32
2022-10-24T02:09:46.948Z,100081.55
2022-10-24T02:11:49.528Z,100081.05
2022-10-24T02:14:56.718Z,100090.45
2022-10-24T02:15:57.321Z,100091.95
2022-10-24T02:16:54.879Z,100098.73
2022-10-24T02:17:56.578Z,100091.72
2022-10-24T02:18:57.858Z,100094.78
2022-10-24T02:19:56.737Z,100096.17
2022-10-24T02:26:09.377Z,100104.58
2022-10-24T02:27:12.150Z,100106.72
2022-10-24T02:30:19.306Z,100110.57
2022-10-24T02:33:23.136Z,100113.16
2022-10-24T02:34:23.841Z,100113.86
2022-10-24T02:36:27.561Z,100113.18
2022-10-24T02:37:27.525Z,100116.84
2022-10-24T02:38:33.109Z,100117.87
2022-10-24T02:39:26.882Z,100113.76
2022-10-24T02:40:26.381Z,100113.95
2022-10-24T02:42:30.678Z,100113.58
2022-10-24T02:43:30.898Z,100116.74
2022-10-24T02:44:30.276Z,100115
2022-10-24T02:45:30.246Z,100117.05
2022-10-24T02:46:32.138Z,100117.14
2022-10-24T02:47:32.667Z,100115.6
2022-10-24T02:48:37.474Z,100112.06
2022-10-24T02:49:34.919Z,100110.69
2022-10-24T02:50:36.567Z,100115.53
2022-10-24T02:51:41.190Z,100116.02
2022-10-24T02:52:44.142Z,100115.04
2022-10-24T02:53:41.704Z,100117.11
2022-10-24T02:54:42.326Z,100120.55
2022-10-24T02:55:42.446Z,100122.55
2022-10-24T02:56:51.559Z,100123.51
2022-10-24T02:57:43.878Z,100123.84
2022-10-24T02:58:44.418Z,100122.55
2022-10-24T02:59:44.616Z,100120.41
2022-10-24T03:00:44.996Z,100123.32
2022-10-24T03:01:45.287Z,100120.75
2022-10-24T03:02:46.118Z,100123.04
2022-10-24T03:03:46.565Z,100118.65
2022-10-24T03:04:46.583Z,100116.73
2022-10-24T03:05:46.669Z,100113.59
2022-10-24T03:06:47.441Z,100117.27
2022-10-24T03:07:47.640Z,100117.64
2022-10-24T03:08:47.957Z,100124.81
2022-10-24T03:09:48.156Z,100125.98
2022-10-24T03:10:48.470Z,100128.55
2022-10-24T03:11:48.899Z,100124.88
2022-10-24T03:12:49.209Z,100125.03
2022-10-24T03:13:49.927Z,100123.08
2022-10-24T03:14:50.032Z,100125.66
2022-10-24T03:15:50.460Z,100125.75
2022-10-24T03:16:50.666Z,100127.41
2022-10-24T03:17:51.389Z,100128.89
2022-10-24T03:18:51.905Z,100133.17
2022-10-24T03:19:52.027Z,100133.45
2022-10-24T03:20:52.230Z,100136.41
2022-10-24T03:21:52.648Z,100135.98
2022-10-24T03:22:52.846Z,100137.56
2022-10-24T03:23:53.477Z,100134.23
2022-10-24T03:24:55.521Z,100133.8
2022-10-24T03:25:54.417Z,100138.53
2022-10-24T03:26:54.316Z,100136.83
2022-10-24T03:27:54.676Z,100138.13
2022-10-24T03:28:55.153Z,100139.22
2022-10-24T03:29:55.443Z,100144.17
2022-10-24T03:30:55.888Z,100143.9
2022-10-24T03:31:56.186Z,100147.33
2022-10-24T03:32:56.507Z,100150.77
2022-10-24T03:33:57.126Z,100150.42
2022-10-24T03:34:57.088Z,100152.75
2022-10-24T03:35:58.057Z,100150.25
2022-10-24T03:36:58.178Z,100150.23
2022-10-24T03:37:58.377Z,100148.12
2022-10-24T03:38:58.700Z,100146.34
2022-10-24T03:39:59.116Z,100144.16
2022-10-24T03:40:59.314Z,100149.7
2022-10-24T03:41:59.749Z,100146.09
2022-10-24T03:43:00.061Z,100150.81
2022-10-24T03:44:00.428Z,100156.45
2022-10-24T03:45:00.787Z,100156.72
2022-10-24T03:46:01.296Z,100153.06
2022-10-24T03:47:01.614Z,100149.08
2022-10-24T03:48:01.927Z,100154.03
2022-10-24T03:50:03.051Z,100154.8
2022-10-24T03:51:03.078Z,100154
2022-10-24T03:52:03.540Z,100157.27
2022-10-24T03:53:04.218Z,100160.2
2022-10-24T03:54:04.532Z,100160.55
2022-10-24T03:55:05.145Z,100155.61
2022-10-24T03:56:05.452Z,100158.05
2022-10-24T03:57:05.358Z,100157.98
2022-10-24T03:58:05.540Z,100161.78
2022-10-24T03:59:05.998Z,100159.98
2022-10-24T04:00:07.541Z,100163.08
2022-10-24T04:01:06.906Z,100165.3
2022-10-24T04:02:07.140Z,100168.22
2022-10-24T04:03:08.068Z,100170.66
2022-10-24T04:04:07.972Z,100173.19
2022-10-24T04:05:08.997Z,100175.66
2022-10-24T04:06:08.682Z,100175.94
2022-10-24T04:07:08.818Z,100173.41
2022-10-24T04:08:09.326Z,100177.54
2022-10-24T04:09:09.759Z,100172.92
2022-10-24T04:10:10.788Z,100176.06
2022-10-24T04:11:10.439Z,100180.36
2022-10-24T04:12:10.787Z,100174.74
2022-10-24T04:13:11.397Z,100176.36
2022-10-24T04:14:11.672Z,100172.59
2022-10-24T04:15:12.031Z,100173.56
2022-10-24T04:16:12.139Z,100176.45
2022-10-24T04:17:12.565Z,100174.22
2022-10-24T04:18:12.975Z,100174.7
2022-10-24T04:19:13.391Z,100176.86
2022-10-24T04:20:13.711Z,100175.22
2022-10-24T04:21:16.858Z,100178.27
2022-10-24T04:22:18.174Z,100183.53
2022-10-24T04:23:18.331Z,100180.8
2022-10-24T04:24:18.858Z,100189.36
2022-10-24T04:25:19.470Z,100188.53
2022-10-24T04:26:19.589Z,100184.16
2022-10-24T04:27:19.897Z,100184.16
2022-10-24T04:28:20.377Z,100184.57
2022-10-24T04:29:20.933Z,100185.97
2022-10-24T04:30:21.048Z,100183.43
2022-10-24T04:31:23.525Z,100183.41
2022-10-24T04:32:21.673Z,100184.27
2022-10-24T04:33:22.089Z,100183.85
2022-10-24T04:34:22.606Z,100184.02
2022-10-24T04:35:23.078Z,100181.7
2022-10-24T04:36:23.348Z,100189.62
2022-10-24T04:37:23.446Z,100188.61
2022-10-24T04:38:24.071Z,100191.2
2022-10-24T04:39:24.380Z,100190.42
2022-10-24T04:40:24.479Z,100189.14
2022-10-24T04:41:25.009Z,100182.61
2022-10-24T04:42:25.937Z,100185.83
2022-10-24T04:43:26.433Z,100187.92
2022-10-24T04:44:26.353Z,100192.17
2022-10-24T04:45:26.472Z,100185.42
2022-10-24T04:46:27.000Z,100189.62
2022-10-24T04:47:27.401Z,100194.88
2022-10-24T04:48:27.615Z,100184.98
2022-10-24T04:49:27.900Z,100190.45
2022-10-24T04:50:28.450Z,100192.07
2022-10-24T04:51:28.860Z,100193.55
2022-10-24T04:52:29.181Z,100191.67
2022-10-24T04:53:29.893Z,100189.46
2022-10-24T04:54:29.907Z,100196.31
2022-10-24T04:55:30.153Z,100198.84
2022-10-24T04:56:30.734Z,100192.43
2022-10-24T04:57:30.946Z,100194.33
2022-10-24T04:58:31.466Z,100188.71
2022-10-24T04:59:31.785Z,100195
2022-10-24T05:00:31.991Z,100199.03
2022-10-24T05:01:32.657Z,100194.89
2022-10-24T05:02:32.987Z,100200.11
2022-10-24T05:03:33.149Z,100199.69
2022-10-24T05:04:33.657Z,100194.79
2022-10-24T05:05:34.176Z,100191.99
2022-10-24T05:06:34.388Z,100192.08
2022-10-24T05:07:34.700Z,100200.22
2022-10-24T05:08:35.119Z,100198.92
2022-10-24T05:09:35.632Z,100193.47
2022-10-24T05:10:35.743Z,100194.3
2022-10-24T05:11:36.159Z,100195.62
2022-10-24T05:12:36.786Z,100193.39
2022-10-24T05:13:37.265Z,100193.02
2022-10-24T05:14:37.202Z,100186.36
2022-10-24T05:15:37.827Z,100186.2
2022-10-24T05:16:38.056Z,100190.46
2022-10-24T05:17:38.247Z,100197.3
2022-10-24T05:18:39.016Z,100195.89
2022-10-24T05:19:39.049Z,100192.28
2022-10-24T05:21:39.813Z,100189.48
2022-10-24T05:22:40.538Z,100194.69
2022-10-24T05:23:40.718Z,100194.17
2022-10-24T05:24:41.237Z,100198.3
2022-10-24T05:25:41.196Z,100193.26
2022-10-24T05:26:41.688Z,100191.73
2022-10-24T05:27:42.107Z,100198.09
2022-10-24T05:28:42.417Z,100202.38
2022-10-24T05:29:42.842Z,100202.46
2022-10-24T05:30:44.383Z,100201.53
2022-10-24T05:31:43.448Z,100207.48
2022-10-24T05:32:44.576Z,100207.66
2022-10-24T05:33:44.293Z,100209.48
2022-10-24T05:34:44.708Z,100207.09
2022-10-24T05:35:45.147Z,100209.47
2022-10-24T05:36:45.763Z,100211.09
2022-10-24T05:37:45.764Z,100207.63
2022-10-24T05:38:46.063Z,100208.06
2022-10-24T05:39:46.689Z,100209.47
2022-10-24T05:40:47.687Z,100203.69
2022-10-24T05:41:47.804Z,100203.52
2022-10-24T05:42:47.776Z,100202.88
2022-10-24T05:43:47.849Z,100203.14
2022-10-24T05:44:48.475Z,100199.91
2022-10-24T05:46:49.206Z,100204.23
2022-10-24T05:47:49.624Z,100205.2
2022-10-24T05:48:50.126Z,100200.09
2022-10-24T05:49:50.027Z,100199.83
2022-10-24T05:50:50.653Z,100205.69
2022-10-24T05:51:50.983Z,100202.34
2022-10-24T05:52:51.286Z,100206.52
2022-10-24T05:53:51.603Z,100199.09
2022-10-24T05:55:06.341Z,100193.09
2022-10-24T05:55:55.204Z,100193.53
2022-10-24T05:56:55.283Z,100192.03
2022-10-24T05:57:55.723Z,100190.62
2022-10-24T05:58:57.566Z,100190.31
2022-10-24T05:59:56.756Z,100190.88
2022-10-24T06:00:56.962Z,100189.23
2022-10-24T06:01:57.381Z,100192.45
2022-10-24T06:02:57.569Z,100192.2
2022-10-24T06:03:57.904Z,100194.19
2022-10-24T06:04:58.420Z,100193.75
2022-10-24T06:05:58.746Z,100192.29
2022-10-24T06:06:59.265Z,100196.48
2022-10-24T06:07:59.986Z,100196.4
2022-10-24T06:08:59.884Z,100194.66
2022-10-24T06:10:00.723Z,100197.55
2022-10-24T06:11:00.825Z,100197.23
2022-10-24T06:12:01.143Z,100200.2
2022-10-24T06:13:01.245Z,100200.44
2022-10-24T06:14:02.527Z,100205.41
2022-10-24T06:15:03.736Z,100210.17
2022-10-24T06:16:02.787Z,100210.75
2022-10-24T06:17:03.010Z,100214.3
2022-10-24T06:18:03.630Z,100215.37
2022-10-24T06:19:03.743Z,100221.05
2022-10-24T06:20:04.880Z,100218.67
2022-10-24T06:21:06.526Z,100218.35
2022-10-24T06:22:06.018Z,100219.59
2022-10-24T06:23:05.407Z,100221.73
2022-10-24T06:24:06.023Z,100222.23
2022-10-24T06:25:06.543Z,100220.98
2022-10-24T06:26:10.541Z,100219.65
2022-10-24T06:27:08.095Z,100221.47
2022-10-24T06:29:09.024Z,100226.16
2022-10-24T06:30:10.054Z,100226.56
2022-10-24T06:31:09.865Z,100224.6
2022-10-24T06:32:09.973Z,100227.15
2022-10-24T06:33:10.603Z,100225.15
2022-10-24T06:34:10.768Z,100231.42
2022-10-24T06:35:11.224Z,100232.91
2022-10-24T06:36:11.544Z,100230.61
2022-10-24T06:37:12.060Z,100233.3
2022-10-24T06:38:12.158Z,100231.25
2022-10-24T06:39:12.468Z,100227.94
2022-10-24T06:40:13.107Z,100224.97
2022-10-24T06:41:14.455Z,100221.32
2022-10-24T06:42:13.824Z,100219.26
2022-10-24T06:43:14.144Z,100220.5
2022-10-24T06:44:15.165Z,100222.32
2022-10-24T06:45:14.936Z,100222.63
2022-10-24T06:46:16.813Z,100231.48
2022-10-24T06:47:15.506Z,100233.47
2022-10-24T06:48:16.267Z,100231.75
2022-10-24T06:49:16.227Z,100230.82
2022-10-24T06:50:17.355Z,100226.64
2022-10-24T06:51:17.122Z,100228.77
2022-10-24T06:52:17.583Z,100227.19
2022-10-24T06:53:17.806Z,100227.7
2022-10-24T06:54:18.106Z,100231.39
2022-10-24T06:55:18.824Z,100227.69
2022-10-24T06:56:19.341Z,100230.64
2022-10-24T06:57:19.465Z,100228.99
2022-10-24T06:58:19.668Z,100230.56
2022-10-24T06:59:19.974Z,100230.62
2022-10-24T07:00:20.968Z,100230.88
2022-10-24T07:01:24.456Z,100232.94
2022-10-24T07:02:23.033Z,100234.81
2022-10-24T07:03:22.969Z,100233.97
2022-10-24T07:04:23.403Z,100236.14
2022-10-24T07:05:23.707Z,100235.39
2022-10-24T07:06:27.507Z,100234.09
2022-10-24T07:07:25.164Z,100232.11
2022-10-24T07:08:25.364Z,100230.45
2022-10-24T07:09:25.883Z,100226.56
2022-10-24T07:10:26.273Z,100224.17
2022-10-24T07:11:27.631Z,100225.68
2022-10-24T07:12:27.329Z,100226.27
2022-10-24T07:13:27.313Z,100229.31
2022-10-24T07:14:27.663Z,100231.22
2022-10-24T07:15:28.475Z,100228.52
2022-10-24T07:16:28.802Z,100229.58
2022-10-24T07:17:29.103Z,100230.45
2022-10-24T07:18:29.323Z,100234.09
2022-10-24T07:19:31.806Z,100231.09
2022-10-24T07:20:30.519Z,100235.25
2022-10-24T07:21:32.819Z,100234.27
2022-10-24T07:22:32.696Z,100232.81
2022-10-24T07:23:31.706Z,100234.46
2022-10-24T07:24:32.023Z,100236.8
2022-10-24T07:25:32.227Z,100235.39
2022-10-24T07:26:32.954Z,100234.47
2022-10-24T07:27:33.678Z,100233.97
2022-10-24T07:28:34.882Z,100238.48
2022-10-24T07:29:33.901Z,100237.47
2022-10-24T07:30:34.945Z,100237.73
2022-10-24T07:31:35.859Z,100239.11
2022-10-24T07:32:35.656Z,100239.52
2022-10-24T07:33:37.923Z,100239.59
2022-10-24T07:34:35.667Z,100243.53
2022-10-24T07:35:41.005Z,100242.36
2022-10-24T07:36:41.565Z,100243.3
2022-10-24T07:37:40.684Z,100244.3
2022-10-24T07:38:40.823Z,100246.26
2022-10-24T07:39:41.344Z,100247.83
2022-10-24T07:40:41.445Z,100249.02
2022-10-24T07:41:42.387Z,100254.45
2022-10-24T07:42:42.705Z,100251.91
2022-10-24T07:43:42.791Z,100247.04
2022-10-24T07:44:43.329Z,100251.92
2022-10-24T07:45:48.997Z,100253.64
2022-10-24T07:46:44.212Z,100254.72
2022-10-24T07:47:45.065Z,100254.11
2022-10-24T07:48:45.190Z,100254.94
2022-10-24T07:49:45.403Z,100256.58
2022-10-24T07:50:47.547Z,100259.53
2022-10-24T07:51:46.327Z,100260
2022-10-24T07:52:46.646Z,100259.98
2022-10-24T07:53:47.056Z,100259.78
2022-10-24T07:54:47.387Z,100260.5
2022-10-24T07:55:47.777Z,100258.3
2022-10-24T07:56:48.107Z,100263.69
2022-10-24T07:57:48.507Z,100260.8
2022-10-24T07:58:48.844Z,100263.28
2022-10-24T07:59:49.347Z,100264.02
2022-10-24T08:00:49.763Z,100265.66
2022-10-24T08:01:50.084Z,100269.82
2022-10-24T08:02:50.602Z,100268.36
2022-10-24T08:03:51.130Z,100266.59
2022-10-24T08:04:51.101Z,100271.06
2022-10-24T08:05:51.846Z,100270.23
2022-10-24T08:06:52.326Z,100272.85
2022-10-24T08:07:56.328Z,100276.38
2022-10-24T08:08:53.105Z,100276.78
2022-10-24T08:09:53.431Z,100277.41
2022-10-24T08:10:53.874Z,100280.69
2022-10-24T08:11:54.249Z,100288
2022-10-24T08:12:54.659Z,100282.52
2022-10-24T08:13:57.437Z,100289.3
2022-10-24T08:14:55.260Z,100288.62
2022-10-24T08:15:55.827Z,100290.52
2022-10-24T08:16:56.224Z,100292.96
2022-10-24T08:17:57.145Z,100293.52
2022-10-24T08:18:58.085Z,100293.3
2022-10-24T08:19:57.585Z,100292.95
2022-10-24T08:21:03.110Z,100292.25
2022-10-24T08:22:01.591Z,100293.3
2022-10-24T08:23:01.183Z,100293.15
2022-10-24T08:24:01.391Z,100289.42
2022-10-24T08:25:02.824Z,100291.22
2022-10-24T08:26:08.680Z,100294.34
2022-10-24T08:27:06.427Z,100291.57
2022-10-24T08:28:08.998Z,100289.58
2022-10-24T08:29:07.058Z,100291.84
2022-10-24T08:30:08.908Z,100292.12
2022-10-24T08:31:11.985Z,100288.62
2022-10-24T08:32:09.547Z,100293.52
2022-10-24T08:33:09.836Z,100294.55
2022-10-24T08:34:10.876Z,100298.67
2022-10-24T08:35:10.780Z,100297.4
2022-10-24T08:36:22.152Z,100304.12
2022-10-24T08:37:14.680Z,100303.83
2022-10-24T08:38:15.206Z,100305.08
2022-10-24T08:39:16.849Z,100311.25
2022-10-24T08:40:18.695Z,100305.3
2022-10-24T08:42:20.558Z,100306.89
2022-10-24T08:43:22.262Z,100309.48
2022-10-24T08:44:34.104Z,100309.5
2022-10-24T08:50:43.441Z,100305.77
2022-10-24T08:51:53.483Z,100304.62
2022-10-24T08:53:44.175Z,100299.72
2022-10-24T08:54:45.820Z,100301.53
2022-10-24T08:55:50.013Z,100302.34
2022-10-24T08:56:48.700Z,100304.66
2022-10-24T08:58:50.565Z,100302.88
2022-10-24T08:59:53.535Z,100304.33
2022-10-24T09:00:53.026Z,100305.06
2022-10-24T09:04:03.287Z,100306.55
2022-10-24T09:05:10.364Z,100305.46
2022-10-24T09:07:07.553Z,100308.71
2022-10-24T09:12:20.961Z,100303.3
2022-10-24T09:13:19.028Z,100306.36
2022-10-24T09:16:24.165Z,100304.75
2022-10-24T09:18:31.045Z,100303.19
2022-10-24T09:19:31.035Z,100300.45
2022-10-24T09:20:31.249Z,100303.14
2022-10-24T09:21:29.408Z,100301.55
2022-10-24T09:22:33.813Z,100305.36
2022-10-24T09:23:34.133Z,100302.94
2022-10-24T09:25:39.055Z,100299.86
2022-10-24T09:26:37.436Z,100299.7
2022-10-24T09:27:41.128Z,100301.91
2022-10-24T09:28:39.382Z,100296.88
2022-10-24T09:29:39.295Z,100300.76
2022-10-24T09:30:39.606Z,100297.13
2022-10-24T09:31:40.743Z,100296.86
2022-10-24T09:32:42.588Z,100299.39
2022-10-24T09:33:40.863Z,100298.15
2022-10-24T09:34:40.855Z,100295.72
2022-10-24T09:35:43.122Z,100299.56
2022-10-24T09:36:42.518Z,100298.02
2022-10-24T09:38:46.686Z,100296.58
2022-10-24T09:39:45.401Z,100298.11
2022-10-24T09:41:48.079Z,100296.25
2022-10-24T09:44:51.883Z,100293.36
2022-10-24T09:46:56.599Z,100298.59
2022-10-24T09:48:00.107Z,100292.76
2022-10-24T09:49:59.804Z,100292.58
2022-10-24T09:51:00.492Z,100290.73
2022-10-24T09:52:05.342Z,100289.49
2022-10-24T09:53:04.124Z,100290.14
2022-10-24T10:01:22.862Z,100296.77
2022-10-24T10:02:31.330Z,100295
2022-10-24T10:03:24.382Z,100297.31
2022-10-24T10:04:24.358Z,100296.3
2022-10-24T10:05:24.680Z,100298.74
2022-10-24T10:06:25.304Z,100296.54
2022-10-24T10:07:34.118Z,100300.31
2022-10-24T10:08:32.066Z,100300.29
2022-10-24T10:09:29.623Z,100293.95
2022-10-24T10:10:35.874Z,100297.52
2022-10-24T10:11:35.273Z,100299.41
2022-10-24T10:12:38.306Z,100298.41
2022-10-24T10:14:41.728Z,100297.2
2022-10-24T10:16:42.261Z,100296.34
2022-10-24T10:18:44.636Z,100294.78
2022-10-24T10:19:47.104Z,100297.25
2022-10-24T10:20:44.403Z,100299.18
2022-10-24T10:22:45.555Z,100298.94
2022-10-24T10:23:48.555Z,100299.61
2022-10-24T10:24:46.490Z,100300.3
2022-10-24T10:25:46.727Z,100299.15
2022-10-24T10:26:47.240Z,100299.3
2022-10-24T10:27:51.756Z,100302.08
2022-10-24T10:49:48.417Z,100300.11
2022-10-24T10:53:00.382Z,100298.58
2022-10-24T11:13:00.655Z,100295.5
2022-10-24T11:16:05.083Z,100286.17
2022-10-24T11:21:20.544Z,100282.81
2022-10-24T11:22:23.751Z,100287.63
2022-10-24T11:24:26.428Z,100285.14
2022-10-24T11:31:54.044Z,100284.44
2022-10-24T11:45:21.856Z,100270.4
2022-10-24T11:46:24.705Z,100264.97
2022-10-24T11:49:36.533Z,100262.61
2022-10-24T11:54:51.509Z,100262.94
2022-10-24T11:57:52.245Z,100256.01
2022-10-24T11:58:58.292Z,100259
2022-10-24T11:59:54.525Z,100258.73
2022-10-24T12:19:40.626Z,100266.86
2022-10-24T12:20:41.131Z,100266.8
2022-10-24T12:22:42.357Z,100260.02
2022-10-24T12:23:41.368Z,100260.72
2022-10-24T12:24:41.364Z,100258.92
2022-10-24T12:25:43.254Z,100258.14
2022-10-24T12:26:42.623Z,100257.44
2022-10-24T12:27:43.025Z,100257.32
2022-10-24T12:28:43.556Z,100257.12
2022-10-24T12:29:43.767Z,100256.53
2022-10-24T12:31:46.121Z,100261.83
2022-10-24T12:35:54.853Z,100263.8
2022-10-24T12:37:57.931Z,100262.5
2022-10-24T12:39:08.232Z,100261.31
2022-10-24T12:41:06.068Z,100255.55
2022-10-24T12:42:04.601Z,100255.39
2022-10-24T12:53:33.988Z,100265.36
2022-10-24T12:57:46.571Z,100262.22
2022-10-24T12:58:57.160Z,100259.05
2022-10-24T12:59:56.543Z,100260.48
2022-10-24T13:01:03.705Z,100254.7
2022-10-24T13:20:01.403Z,100246.91
2022-10-24T13:20:51.165Z,100246.75
2022-10-24T13:22:02.231Z,100247.33
2022-10-24T13:22:50.366Z,100242.99
2022-10-24T13:23:51.484Z,100243.44
2022-10-24T13:24:50.590Z,100243.67
2022-10-24T13:25:58.565Z,100238.94
2022-10-24T13:28:57.563Z,100239.03
2022-10-24T13:37:24.643Z,100244.08
2022-10-24T13:38:17.911Z,100245.27
2022-10-24T13:39:23.025Z,100243.22
2022-10-24T13:40:31.126Z,100243.88
2022-10-24T13:43:29.403Z,100245.61
2022-10-24T13:44:42.357Z,100242.76
2022-10-24T13:51:55.245Z,100238.97
2022-10-24T13:52:59.968Z,100239.16
2022-10-24T14:02:21.944Z,100243.52
2022-10-24T14:03:23.634Z,100241.09
2022-10-24T14:04:21.437Z,100241.59
2022-10-24T14:06:32.617Z,100245.31
2022-10-24T14:07:29.551Z,100243
2022-10-24T14:09:38.675Z,100247.16
2022-10-24T14:10:38.024Z,100248.29
2022-10-24T14:12:40.344Z,100248.02
2022-10-24T14:13:48.017Z,100248.88
2022-10-24T14:14:40.567Z,100245.45
2022-10-24T14:16:42.525Z,100247.56
2022-10-24T14:18:43.647Z,100247.05
2022-10-24T14:21:51.763Z,100246.89
2022-10-24T14:22:51.763Z,100249.09
2022-10-24T14:24:54.446Z,100250.59
2022-10-24T14:26:56.092Z,100252.68
2022-10-24T14:28:00.205Z,100256.95
2022-10-24T14:29:00.109Z,100257.2
2022-10-24T14:32:07.406Z,100254.61
2022-10-24T14:34:20.920Z,100250.58
2022-10-24T14:35:14.495Z,100250.91
2022-10-24T14:36:14.174Z,100249.84
2022-10-24T14:37:17.008Z,100254.57
2022-10-24T14:38:16.958Z,100255.65
2022-10-24T14:39:19.823Z,100256.72
2022-10-24T14:40:18.704Z,100257.59
2022-10-24T14:41:19.122Z,100255.7
2022-10-24T14:42:18.920Z,100258.53
2022-10-24T14:43:27.325Z,100259.12
2022-10-24T14:44:22.734Z,100259.13
2022-10-24T14:45:28.776Z,100260.77
2022-10-24T14:48:23.283Z,100258.75
2022-10-24T14:51:38.455Z,100257.92
2022-10-24T14:52:34.454Z,100262.47
2022-10-24T14:53:31.863Z,100262.33
2022-10-24T14:54:33.964Z,100259.72
2022-10-24T14:55:33.558Z,100261.88
2022-10-24T14:56:36.121Z,100261.02
2022-10-24T14:57:35.085Z,100260.23
2022-10-24T14:58:36.238Z,100263.52
2022-10-24T14:59:38.184Z,100260.97
2022-10-24T15:00:40.148Z,100257.91
2022-10-24T15:01:38.390Z,100255.06
2022-10-24T15:02:42.926Z,100254.13
2022-10-24T15:04:45.973Z,100255.38
2022-10-24T15:06:48.264Z,100250.97
2022-10-24T15:08:16.827Z,100255.64
2022-10-24T15:09:59.536Z,100253.29
2022-10-24T15:12:02.745Z,100252.73
2022-10-24T15:18:22.401Z,100249.28
2022-10-24T15:19:20.006Z,100250.42
2022-10-24T15:20:25.604Z,100252.53
2022-10-24T15:21:31.429Z,100251.38
2022-10-24T15:23:32.812Z,100248.88
2022-10-24T15:24:30.255Z,100252.78
2022-10-24T15:25:39.213Z,100250.81
2022-10-24T15:26:40.513Z,100252.73
2022-10-24T15:27:44.344Z,100253.17
2022-10-24T15:29:42.483Z,100251.7
2022-10-24T15:30:43.106Z,100252.46
2022-10-24T15:31:46.076Z,100257.32
2022-10-24T15:32:44.820Z,100255.78
2022-10-24T15:33:44.758Z,100253.02
2022-10-24T15:34:44.560Z,100253.62
2022-10-24T15:35:44.979Z,100251.02
2022-10-24T15:36:47.040Z,100257.94
2022-10-24T15:38:46.446Z,100252.23
2022-10-24T15:39:46.642Z,100249.41
2022-10-24T15:40:48.904Z,100250.56
2022-10-24T15:41:47.269Z,100250.32
2022-10-24T15:42:47.947Z,100248.17
2022-10-24T15:43:48.199Z,100248.2
2022-10-24T15:44:48.515Z,100248.3
2022-10-24T15:45:48.825Z,100248.17
2022-10-24T15:46:49.554Z,100249.42
2022-10-24T15:47:50.989Z,100249.54
2022-10-24T15:48:50.291Z,100245.86
2022-10-24T15:49:51.009Z,100247.85
2022-10-24T15:50:50.924Z,100251.13
2022-10-24T15:51:51.531Z,100245.02
2022-10-24T15:52:55.732Z,100246.12
2022-10-24T15:53:53.078Z,100246.38
2022-10-24T15:54:53.496Z,100243.48
2022-10-24T15:55:53.809Z,100245.91
2022-10-24T15:56:55.143Z,100240.63
2022-10-24T15:57:55.551Z,100246.27
2022-10-24T15:58:55.063Z,100244.12
2022-10-24T15:59:55.478Z,100247.87
2022-10-24T16:00:56.170Z,100246.34
2022-10-24T16:03:01.345Z,100251.57
2022-10-24T16:03:59.800Z,100247.53
2022-10-24T16:04:59.607Z,100250.11
2022-10-24T16:06:00.038Z,100250.92
2022-10-24T16:07:00.375Z,100253.27
2022-10-24T16:08:00.747Z,100254.26
2022-10-24T16:09:01.166Z,100254.72
2022-10-24T16:10:01.386Z,100253.34
2022-10-24T16:11:05.004Z,100251.34
2022-10-24T16:12:05.284Z,100253.23
2022-10-24T16:13:05.478Z,100252.23
2022-10-24T16:14:06.015Z,100254.17
2022-10-24T16:15:07.612Z,100254.83
2022-10-24T16:16:07.566Z,100250.73
2022-10-24T16:17:07.264Z,100248.46
2022-10-24T16:18:08.506Z,100247.15
2022-10-24T16:19:07.991Z,100250.42
2022-10-24T16:20:09.020Z,100253.66
2022-10-24T16:22:15.503Z,100250.36
2022-10-24T16:23:15.989Z,100248.06
2022-10-24T16:24:14.582Z,100245.36
2022-10-24T16:26:16.225Z,100244.29
2022-10-24T16:27:16.134Z,100243.6
2022-10-24T16:28:17.682Z,100247.98
2022-10-24T16:29:16.867Z,100245.17
2022-10-24T16:30:20.034Z,100252.8
2022-10-24T16:31:18.213Z,100247.86
2022-10-24T16:33:18.942Z,100247.63
2022-10-24T16:34:18.748Z,100248.4
2022-10-24T16:35:24.480Z,100244.78
2022-10-24T16:36:24.635Z,100244.79
2022-10-24T16:37:22.347Z,100243.38